NEODyS-2

Near Earth Objects - Dynamic Site
NEODyS ∴ Observatories ∴ Site 691 ∴ Obs & residuals
Contact »
691  ▹ 
OBSERVATIONS AND RESIDUALS

691-Steward Observatory, Kitt Peak-Spacewatch

Detections | Residuals | Detections & Residuals

[1-200] [201-400] [401-600] [601-800] [801-1000] [1001-1200] [1201-1400] [1401-1600] [1601-1800] [1801-2000] [2001-2200] [2201-2400] [2401-2600] [2601-2800] [2801-3000] [3001-3200] [3201-3400] [3401-3600] [3601-3800] [3801-4000] [4001-4200] [4201-4400] [4401-4600] [4601-4800] [4801-5000] [5001-5200] [5201-5400] [5401-5600] [5601-5800] [5801-6000] [6001-6200] [6201-6400] [6401-6600] [6601-6800] [6801-7000] [7001-7200] [7201-7400] [7401-7600] [7601-7800] [7801-8000] [8001-8200] [8201-8400] [8401-8600] [8601-8800] [8801-9000] [9001-9200] [9201-9400] [9401-9600] [9601-9800] [9801-10000] [10001-10200] [10201-10400] [10401-10600] [10601-10800] [10801-11000] [11001-11200] [11201-11400] [11401-11600] [11601-11800] [11801-12000] [12001-12200] [12201-12400] [12401-12600] [12601-12800] [12801-13000] [13001-13200] [13201-13400] [13401-13600] [13601-13800] [13801-14000] [14001-14200] [14201-14400] [14401-14600] [14601-14800] [14801-15000] [15001-15200] [15201-15400] [15401-15600] [15601-15800] [15801-16000] [16001-16200] [16201-16400] [16401-16600] [16601-16800] [16801-17000] [17001-17200] [17201-17400] [17401-17600] [17601-17800] [17801-18000] [18001-18200] [18201-18400] [18401-18600] [18601-18800] [18801-19000] [19001-19200] [19201-19400] [19401-19600] [19601-19800] [19801-20000] [20001-20200] [20201-20400] [20401-20600] [20601-20800] [20801-21000] [21001-21200] [21201-21400] [21401-21600] [21601-21800] [21801-22000] [22001-22200] [22201-22400] [22401-22600] [22601-22800] [22801-23000] [23001-23200] [23201-23400] [23401-23600] [23601-23800] [23801-24000] [24001-24200] [24201-24400] [24401-24600] [24601-24800] [24801-25000] [25001-25200] [25201-25400] [25401-25600] [25601-25800] [25801-26000] [26001-26200] [26201-26400] [26401-26600] [26601-26800] [26801-27000] [27001-27200] [27201-27400] [27401-27600] [27601-27800] [27801-28000] [28001-28200] [28201-28400] [28401-28600] [28601-28800] [28801-29000] [29001-29200] [29201-29400] [29401-29600] [29601-29800] [29801-30000] [30001-30200] [30201-30400] [30401-30600] [30601-30800] [30801-31000] [31001-31200] [31201-31400] [31401-31600] [31601-31800] [31801-32000] [32001-32200] [32201-32400] [32401-32600] [32601-32800] [32801-33000] [33001-33200] [33201-33400] [33401-33600] [33601-33800] [33801-34000] [34001-34200] [34201-34400] [34401-34600] [34601-34800] [34801-35000] [35001-35200] [35201-35400] [35401-35600] [35601-35800] [35801-36000] [36001-36200] [36201-36400] [36401-36600] [36601-36800] [36801-37000] [37001-37200] [37201-37400] [37401-37600] [37601-37800] [37801-38000] [38001-38200] [38201-38400] [38401-38600] [38601-38800] [38801-39000] [39001-39200] [39201-39400] [39401-39600] [39601-39800] [39801-40000] [40001-40200] [40201-40400] [40401-40600] [40601-40800] [40801-41000] [41001-41200] [41201-41400] [41401-41600] [41601-41800] [41801-42000] [42001-42200] [42201-42400] [42401-42600] [42601-42800] [42801-43000] [43001-43200] [43201-43400] [43401-43600] [43601-43800] [43801-44000] [44001-44200] [44201-44400] [44401-44600] [44601-44800] [44801-45000] [45001-45200] [45201-45400] [45401-45600] [45601-45800] [45801-46000] [46001-46200] [46201-46400] [46401-46600] [46601-46800] [46801-47000] [47001-47200] [47201-47400] [47401-47600] [47601-47800] [47801-48000] [48001-48200] [48201-48400] [48401-48600] [48601-48800] [48801-49000] [49001-49200] [49201-49400] [49401-49600] [49601-49800] [49801-50000] [50001-50200] [50201-50388]

Designation T Tech N Date Right Ascension Declination Apparent Magnitude Star Catalog Site code χ Used A Used M
yr-mo-day precision hr:min:sec precision rms F bias residual deg min sec precision rms F bias residual mag/col rms residual
2019UR2 O C 2019-10-23.12523 1.000E-05 00:12:17.880 1.500E-01 0.500 F -0.099 -0.342 +26° 28' 22.00" 1.000E-01 0.500 F 0.327 0.213 20.4 R 0.70 0.49 o 691 0.81 Yes Yes
2019UR2 O C 2019-10-23.12981 1.000E-05 00:12:17.270 1.500E-01 0.500 F -0.099 -0.043 +26° 28' 17.10" 1.000E-01 0.500 F 0.327 0.137 20.2 R 0.70 0.29 o 691 0.29 Yes Yes
2019UR2 O C 2019-10-23.13286 1.000E-05 00:12:16.830 1.500E-01 0.500 F -0.099 -0.286 +26° 28' 13.60" 1.000E-01 0.500 F 0.327 -0.143 20.4 R 0.70 0.49 o 691 0.65 Yes Yes
2019UG O C K 2019-10-23.16138 1.000E-05 02:13:12.340 1.500E-01 0.500 F -0.372 -0.034 +16° 11' 00.80" 1.000E-01 0.500 F 0.381 -0.112 21.6 R 0.70 0.64 o 691 0.24 Yes Yes
2019UG O C K 2019-10-23.16850 1.000E-05 02:13:12.850 1.500E-01 0.500 F -0.372 0.104 +16° 10' 48.00" 1.000E-01 0.500 F 0.381 -0.496 21.1 R 0.70 0.13 o 691 1.02 Yes Yes
2019UG O C K 2019-10-23.17562 1.000E-05 02:13:13.310 1.500E-01 0.500 F -0.372 -0.094 +16° 10' 36.30" 1.000E-01 0.500 F 0.381 0.262 21.4 R 0.70 0.43 o 691 0.56 Yes Yes
2019TO O C K 2019-10-23.18424 1.000E-05 21:55:18.130 1.500E-01 0.500 F -0.202 0.557 -18° 40' 42.60" 1.000E-01 0.500 F 0.198 0.411 21.1 R 0.70 0.36 o 691 1.40 Yes Yes
2019TO O C K 2019-10-23.19097 1.000E-05 21:55:19.210 1.500E-01 0.500 F -0.202 0.299 -18° 41' 12.40" 1.000E-01 0.500 F 0.198 -0.143 o 691 0.68 Yes No
2019TO O C K 2019-10-23.19433 1.000E-05 21:55:19.720 1.500E-01 0.500 F -0.202 -0.252 -18° 41' 26.30" 1.000E-01 0.500 F 0.198 0.551 19.8 R 0.70 -0.94 o 691 1.24 Yes Yes
2019TF2 O C K 2019-10-23.24865 1.000E-05 00:16:51.360 1.500E-01 0.500 F -0.243 -0.549 -28° 22' 36.00" 1.000E-01 0.500 F 0.498 -0.060 20.9 R 0.70 -0.57 o 691 1.11 Yes Yes
2019TF2 O C K 2019-10-23.26201 1.000E-05 00:16:49.390 1.500E-01 0.500 F -0.243 -0.061 -28° 23' 20.50" 1.000E-01 0.500 F 0.498 -0.030 21.8 R 0.70 0.33 o 691 0.14 Yes Yes
2019TF2 O C K 2019-10-23.27537 1.000E-05 00:16:47.410 1.500E-01 0.500 F -0.243 0.123 -28° 24' 04.00" 1.000E-01 0.500 F 0.498 0.512 21.3 R 0.70 -0.17 o 691 1.06 Yes Yes
2019UO1 O C K 2019-10-23.29342 1.000E-05 01:03:16.450 1.500E-01 0.500 F -0.190 0.123 +11° 32' 13.20" 1.000E-01 0.500 F 0.341 0.039 22.0 R 0.70 0.69 o 691 0.26 Yes Yes
2019UO1 O C K 2019-10-23.30018 1.000E-05 01:03:15.740 1.500E-01 0.500 F -0.190 0.246 +11° 32' 00.50" 1.000E-01 0.500 F 0.341 0.104 21.4 R 0.70 0.09 o 691 0.54 Yes Yes
2019UO1 O C K 2019-10-23.30695 1.000E-05 01:03:15.010 1.500E-01 0.500 F -0.190 0.067 +11° 31' 47.80" 1.000E-01 0.500 F 0.341 0.208 21.7 R 0.70 0.39 o 691 0.45 Yes Yes
2019UA3 O C K 2019-10-23.31564 1.000E-05 03:19:07.610 1.500E-01 0.500 F -0.273 0.092 +01° 10' 36.80" 1.000E-01 0.500 F 0.282 0.263 21.6 R 0.70 0.11 o 691 0.56 Yes Yes
2019UA3 O C K 2019-10-23.32606 1.000E-05 03:19:06.770 1.500E-01 0.500 F -0.273 0.146 +01° 10' 29.30" 1.000E-01 0.500 F 0.282 0.097 21.3 R 0.70 -0.19 o 691 0.35 Yes Yes
2019UA3 O C K 2019-10-23.34272 1.000E-05 03:19:05.400 1.500E-01 0.500 F -0.273 -0.026 +01° 10' 17.80" 1.000E-01 0.500 F 0.282 0.310 21.6 R 0.70 0.11 o 691 0.63 Yes Yes
2019TX6 O C K 2019-10-23.35378 1.000E-05 05:39:25.890 1.500E-01 0.500 F -0.155 0.426 +17° 42' 37.70" 1.000E-01 0.500 F 0.216 -0.496 21.0 R 0.70 0.61 o 691 1.34 Yes Yes
2019TX6 O C K 2019-10-23.35717 1.000E-05 05:39:27.270 1.500E-01 0.500 F -0.155 -0.017 +17° 42' 32.60" 1.000E-01 0.500 F 0.216 -0.665 20.0 R 0.70 -0.39 o 691 1.35 Yes Yes
2019TX6 O C K 2019-10-23.36397 1.000E-05 05:39:30.120 1.500E-01 0.500 F -0.155 0.292 +17° 42' 22.90" 1.000E-01 0.500 F 0.216 -0.454 20.4 R 0.70 0.01 o 691 1.11 Yes Yes
2019SH7 O C K 2019-10-23.42873 1.000E-05 02:51:13.400 1.500E-01 0.500 F -0.358 0.080 -00° 21' 15.50" 1.000E-01 0.500 F 0.229 -0.003 21.8 R 0.70 0.59 o 691 0.16 Yes Yes
2019SH7 O C K 2019-10-23.43776 1.000E-05 02:51:13.320 1.500E-01 0.500 F -0.358 -0.121 -00° 21' 38.00" 1.000E-01 0.500 F 0.229 -0.046 21.3 R 0.70 0.09 o 691 0.26 Yes Yes
2019SH7 O C K 2019-10-23.44679 1.000E-05 02:51:13.270 1.500E-01 0.500 F -0.358 0.076 -00° 22' 00.60" 1.000E-01 0.500 F 0.229 -0.197 21.6 R 0.70 0.39 o 691 0.43 Yes Yes
2019UR2 O C K 2019-10-24.07333 1.000E-05 00:10:17.400 1.500E-01 0.500 F -0.039 0.101 +26° 09' 45.50" 1.000E-01 0.500 F 0.308 -0.011 20.1 R 0.70 0.26 o 691 0.20 Yes Yes
2019UR2 O C K 2019-10-24.07911 1.000E-05 00:10:16.550 1.500E-01 0.500 F -0.039 -0.419 +26° 09' 38.20" 1.000E-01 0.500 F 0.308 -0.651 19.6 R 0.70 -0.24 o 691 1.56 Yes Yes
2019UR2 O C K 2019-10-24.08490 1.000E-05 00:10:15.760 1.500E-01 0.500 F -0.039 -0.070 +26° 09' 32.20" 1.000E-01 0.500 F 0.308 0.036 19.8 R 0.70 -0.04 o 691 0.16 Yes Yes
2019US5 O C K 2019-10-24.08750 1.000E-05 22:17:51.710 1.500E-01 0.500 F 0.018 0.092 +29° 10' 58.50" 1.000E-01 0.500 F 0.380 -0.200 20.9 R 0.70 0.09 o 691 0.45 Yes Yes
2019US5 O C K 2019-10-24.09430 1.000E-05 22:17:54.340 1.500E-01 0.500 F 0.018 -0.014 +29° 10' 44.90" 1.000E-01 0.500 F 0.380 0.153 20.6 R 0.70 -0.21 o 691 0.31 Yes Yes
2019US5 O C K 2019-10-24.10110 1.000E-05 22:17:56.980 1.500E-01 0.500 F 0.018 0.043 +29° 10' 30.70" 1.000E-01 0.500 F 0.380 -0.078 21.0 R 0.70 0.19 o 691 0.18 Yes Yes
2019US6 O C K 2019-10-24.12944 1.000E-05 21:47:36.240 1.500E-01 0.500 F -0.033 -0.134 +16° 36' 34.90" 1.000E-01 0.500 F 0.364 -0.014 21.7 R 0.70 0.50 o 691 0.27 Yes Yes
2019US6 O C K 2019-10-24.13284 1.000E-05 21:47:36.490 1.500E-01 0.500 F -0.033 -0.161 +16° 36' 32.90" 1.000E-01 0.500 F 0.364 -0.154 21.1 R 0.70 -0.10 o 691 0.45 Yes Yes
2019US6 O C K 2019-10-24.13624 1.000E-05 21:47:36.760 1.500E-01 0.500 F -0.033 0.098 +16° 36' 31.00" 1.000E-01 0.500 F 0.364 -0.192 21.3 R 0.70 0.10 o 691 0.43 Yes Yes
2019UB4 O C K 2019-10-24.18987 1.000E-05 00:27:38.760 1.500E-01 0.500 F -0.172 0.311 +07° 08' 09.30" 1.000E-01 0.500 F 0.404 -0.700 19.5 R 0.70 -0.28 o 691 1.55 Yes Yes
2019UB4 O C K 2019-10-24.19375 1.000E-05 00:27:41.100 1.500E-01 0.500 F -0.172 -0.009 +07° 08' 49.10" 1.000E-01 0.500 F 0.404 -0.005 20.1 R 0.70 0.32 o 691 0.02 Yes Yes
2019UB4 O C K 2019-10-24.19763 1.000E-05 00:27:43.440 1.500E-01 0.500 F -0.172 -0.143 +07° 09' 27.90" 1.000E-01 0.500 F 0.404 -0.196 19.8 R 0.70 0.02 o 691 0.49 Yes Yes
2019UR O C K 2019-10-24.20234 1.000E-05 01:11:08.380 1.500E-01 0.500 F -0.277 -0.135 +03° 16' 45.50" 1.000E-01 0.500 F 0.247 0.416 20.3 R 0.70 -0.47 o 691 0.92 Yes Yes
2019UR O C K 2019-10-24.21230 1.000E-05 01:11:14.040 1.500E-01 0.500 F -0.277 0.200 +03° 15' 56.60" 1.000E-01 0.500 F 0.247 -0.356 20.9 R 0.70 0.13 o 691 0.87 Yes Yes
2019UR O C K 2019-10-24.22223 1.000E-05 01:11:19.620 1.500E-01 0.500 F -0.277 -0.161 +03° 15' 08.60" 1.000E-01 0.500 F 0.247 -0.379 21.4 R 0.70 0.63 o 691 0.84 Yes Yes
2019UA3 O C K 2019-10-24.29576 1.000E-05 03:18:27.150 1.500E-01 0.500 F -0.273 -0.302 +01° 00' 03.70" 1.000E-01 0.500 F 0.282 -0.285 21.6 R 0.70 -0.04 o 691 0.84 Yes Yes
2019UA3 O C K 2019-10-24.30340 1.000E-05 03:18:26.600 1.500E-01 0.500 F -0.273 0.014 +00° 59' 59.60" 1.000E-01 0.500 F 0.282 0.077 22.0 R 0.70 0.36 o 691 0.16 Yes Yes
2019UA3 O C K 2019-10-24.31103 1.000E-05 03:18:26.010 1.500E-01 0.500 F -0.273 -0.218 +00° 59' 54.50" 1.000E-01 0.500 F 0.282 -0.569 21.7 R 0.70 0.06 o 691 1.22 Yes Yes
2019US O C K 2019-10-24.32478 1.000E-05 01:41:52.180 1.500E-01 0.500 F -0.096 -0.643 +09° 52' 16.80" 1.000E-01 0.500 F 0.297 -0.181 21.0 R 0.70 0.48 o 691 1.39 Yes Yes
2019US O C K 2019-10-24.32905 1.000E-05 01:41:52.510 1.500E-01 0.500 F -0.096 0.016 +09° 52' 07.80" 1.000E-01 0.500 F 0.297 0.470 20.9 R 0.70 0.37 o 691 0.99 Yes Yes
2019US O C K 2019-10-24.33333 1.000E-05 01:41:52.710 1.500E-01 0.500 F -0.096 -1.275 +09° 51' 58.30" 1.000E-01 0.500 F 0.297 0.653 20.3 R 0.70 -0.23 o 691 3.03 Yes Yes
2005PA17 O C K 2019-10-24.33983 1.000E-05 03:35:06.580 1.500E-01 0.500 F -0.377 0.223 -20° 27' 30.20" 1.000E-01 0.500 F 0.022 1.073 19.7 R 0.70 -0.02 o 691 2.21 Yes Yes
2005PA17 O C K 2019-10-24.34295 1.000E-05 03:35:07.070 1.500E-01 0.500 F -0.377 0.536 -20° 27' 01.50" 1.000E-01 0.500 F 0.022 1.189 19.6 R 0.70 -0.12 o 691 2.63 Yes Yes
2005PA17 O C K 2019-10-24.34607 1.000E-05 03:35:07.580 1.500E-01 0.500 F -0.377 1.140 -20° 26' 32.90" 1.000E-01 0.500 F 0.022 1.200 20.1 R 0.70 0.38 o 691 3.28 No Yes
2019SO5 O C K 2019-10-24.46328 1.000E-05 03:20:57.370 1.500E-01 0.500 F -0.248 -0.137 +24° 33' 07.50" 1.000E-01 0.500 F 0.225 0.691 21.5 R 0.70 -0.04 o 691 1.44 Yes Yes
2019SO5 O C K 2019-10-24.47169 1.000E-05 03:20:57.130 1.500E-01 0.500 F -0.248 -0.160 +24° 33' 25.20" 1.000E-01 0.500 F 0.225 -0.103 21.7 R 0.70 0.16 o 691 0.39 Yes Yes
2019SO5 O C K 2019-10-24.48010 1.000E-05 03:20:56.910 1.500E-01 0.500 F -0.248 0.039 +24° 33' 44.40" 1.000E-01 0.500 F 0.225 0.635 21.6 R 0.70 0.06 o 691 1.30 Yes Yes
2019UB4 O C K 2019-10-25.15496 1.000E-05 00:40:27.190 1.500E-01 0.500 F -0.242 -0.412 +09° 21' 13.20" 1.000E-01 0.500 F 0.305 -0.455 20.5 R 0.70 0.43 o 691 1.24 Yes Yes
2019UB4 O C K 2019-10-25.15958 1.000E-05 00:40:29.170 1.500E-01 0.500 F -0.217 -0.157 +09° 21' 47.40" 1.000E-01 0.500 F 0.355 0.076 20.8 R 0.70 0.73 o 691 0.36 Yes Yes
2019TJ4 O C K 2019-10-25.25977 1.000E-05 03:46:36.140 1.500E-01 0.500 F -0.453 -0.931 +01° 08' 02.80" 1.000E-01 0.500 F 0.394 0.629 21.3 R 0.70 0.40 o 691 2.28 Yes Yes
2019TJ4 O C K 2019-10-25.26459 1.000E-05 03:46:35.840 1.500E-01 0.500 F -0.453 0.744 +01° 08' 02.70" 1.000E-01 0.500 F 0.394 0.079 21.2 R 0.70 0.30 o 691 1.52 Yes Yes
2019TJ4 O C K 2019-10-25.26940 1.000E-05 03:46:35.430 1.500E-01 0.500 F -0.453 0.766 +01° 08' 03.00" 1.000E-01 0.500 F 0.394 -0.071 22.0 R 0.70 1.10 o 691 1.56 Yes Yes
2019OL1 O C H 2019-10-26.14246 1.000E-05 21:46:13.280 1.500E-01 0.500 F -0.018 0.039 +12° 07' 59.00" 1.000E-01 0.500 F 0.209 0.060 18.0 R 0.70 -1.13 o 691 0.14 Yes Yes
2019SF2 O C K 2019-10-26.14483 1.000E-05 21:51:59.580 1.500E-01 0.500 F 0.087 -0.180 +10° 41' 14.10" 1.000E-01 0.500 F 0.262 -0.085 o 691 0.40 Yes No
2019OL1 O C H 2019-10-26.15327 1.000E-05 21:46:18.670 1.500E-01 0.500 F -0.018 0.085 +12° 07' 26.70" 1.000E-01 0.500 F 0.209 0.035 17.3 R 0.70 -1.83 o 691 0.18 Yes Yes
2019SF2 O C K 2019-10-26.15564 1.000E-05 21:52:00.040 1.500E-01 0.500 F 0.087 -0.734 +10° 41' 17.50" 1.000E-01 0.500 F 0.262 -0.326 o 691 1.62 Yes No
2019OL1 O C H 2019-10-26.16409 1.000E-05 21:46:24.070 1.500E-01 0.500 F -0.018 0.147 +12° 06' 54.40" 1.000E-01 0.500 F 0.209 0.102 18.0 R 0.70 -1.13 o 691 0.36 Yes Yes
2019SF2 O C K 2019-10-26.16647 1.000E-05 21:52:00.560 1.500E-01 0.500 F 0.087 -0.464 +10° 41' 21.80" 1.000E-01 0.500 F 0.262 0.364 o 691 1.19 Yes No
2019LX4 O C H 2019-10-26.17572 1.000E-05 22:29:36.550 1.500E-01 0.500 F -0.044 0.221 +11° 07' 05.00" 1.000E-01 0.500 F 0.297 -0.048 19.1 R 0.70 -0.16 o 691 0.46 Yes Yes
2019SQ4 O C K 2019-10-26.17831 1.000E-05 22:30:19.380 1.500E-01 0.500 F 0.002 0.942 -06° 14' 21.30" 1.000E-01 0.500 F 0.186 -0.283 21.6 R 0.70 0.43 o 691 1.99 Yes Yes
2019LX4 O C H 2019-10-26.18671 1.000E-05 22:29:40.790 1.500E-01 0.500 F -0.044 -0.173 +11° 07' 11.40" 1.000E-01 0.500 F 0.297 0.091 19.2 R 0.70 -0.06 o 691 0.40 Yes Yes
2019SQ4 O C K 2019-10-26.18928 1.000E-05 22:30:19.720 1.500E-01 0.500 F 0.002 -0.210 -06° 14' 19.40" 1.000E-01 0.500 F 0.186 -0.008 21.4 R 0.70 0.23 o 691 0.42 Yes Yes
2019LX4 O C H 2019-10-26.19767 1.000E-05 22:29:45.070 1.500E-01 0.500 F -0.044 0.162 +11° 07' 17.10" 1.000E-01 0.500 F 0.297 -0.403 19.3 R 0.70 0.04 o 691 0.87 Yes Yes
2019SQ4 O C K 2019-10-26.20021 1.000E-05 22:30:20.170 1.500E-01 0.500 F 0.002 0.274 -06° 14' 17.70" 1.000E-01 0.500 F 0.186 0.061 21.2 R 0.70 0.03 o 691 0.57 Yes Yes
2019SV5 O C K 2019-10-26.21651 1.000E-05 23:31:00.080 1.500E-01 0.500 F -0.127 -0.101 +06° 57' 44.60" 1.000E-01 0.500 F 0.268 0.336 20.6 R 0.70 -0.15 o 691 0.71 Yes Yes
2019SV5 O C K 2019-10-26.23245 1.000E-05 23:31:01.270 1.500E-01 0.500 F -0.127 -0.344 +06° 58' 20.80" 1.000E-01 0.500 F 0.268 0.086 21.3 R 0.70 0.55 o 691 0.72 Yes Yes
2019SV5 O C K 2019-10-26.24839 1.000E-05 23:31:02.490 1.500E-01 0.500 F -0.127 -0.198 +06° 58' 57.30" 1.000E-01 0.500 F 0.268 0.176 21.8 R 0.70 1.05 o 691 0.54 Yes Yes
2019UO O C H 2019-10-26.25721 1.000E-05 00:23:20.980 1.500E-01 0.500 F -0.183 -0.118 +23° 40' 54.30" 1.000E-01 0.500 F 0.321 -0.107 19.3 R 0.70 0.08 o 691 0.32 Yes Yes
2019UO O C H 2019-10-26.26456 1.000E-05 00:23:20.120 1.500E-01 0.500 F -0.183 0.069 +23° 40' 52.90" 1.000E-01 0.500 F 0.321 0.073 19.5 R 0.70 0.28 o 691 0.20 Yes Yes
2019UO O C H 2019-10-26.27184 1.000E-05 00:23:19.250 1.500E-01 0.500 F -0.183 -0.003 +23° 40' 51.30" 1.000E-01 0.500 F 0.321 0.055 19.3 R 0.70 0.08 o 691 0.11 Yes Yes
2019SE9 O C H 2019-10-26.28124 1.000E-05 01:12:44.240 1.500E-01 0.500 F -0.105 0.096 +00° 25' 49.50" 1.000E-01 0.500 F 0.168 0.019 21.0 R 0.70 0.95 o 691 0.20 Yes Yes
2019UJ10 O C K 2019-10-26.28349 1.000E-05 01:02:50.170 1.500E-01 0.500 F -0.264 0.306 -20° 28' 38.50" 1.000E-01 0.500 F -0.067 -0.785 21.2 R 0.70 0.00 o 691 1.70 Yes Yes
2019SE9 O C H 2019-10-26.29330 1.000E-05 01:12:46.660 1.500E-01 0.500 F -0.105 0.204 +00° 25' 40.80" 1.000E-01 0.500 F 0.168 0.117 21.1 R 0.70 1.05 o 691 0.48 Yes Yes
2019UJ10 O C K 2019-10-26.29549 1.000E-05 01:02:49.310 1.500E-01 0.500 F -0.264 -0.022 -20° 28' 38.10" 1.000E-01 0.500 F -0.067 0.282 21.9 R 0.70 0.70 o 691 0.57 Yes Yes
2019SE9 O C H 2019-10-26.30530 1.000E-05 01:12:49.010 1.500E-01 0.500 F -0.105 -0.632 +00° 25' 32.80" 1.000E-01 0.500 F 0.168 0.863 20.8 R 0.70 0.75 o 691 2.19 Yes Yes
1999YC O C 2019-10-26.38910 1.000E-05 04:19:01.970 1.500E-01 0.500 F -0.150 -0.833 +05° 28' 33.50" 1.000E-01 0.500 F 0.410 0.067 20.9 V 0.70 -0.19 o 691 1.67 Yes Yes
1999YC O C 2019-10-26.40010 1.000E-05 04:19:00.980 1.500E-01 0.500 F -0.150 -0.248 +05° 28' 31.00" 1.000E-01 0.500 F 0.410 -0.182 21.3 V 0.70 0.21 o 691 0.62 Yes Yes
1999YC O C 2019-10-26.41111 1.000E-05 04:18:59.920 1.500E-01 0.500 F -0.150 -0.691 +05° 28' 28.90" 1.000E-01 0.500 F 0.410 -0.027 20.8 V 0.70 -0.29 o 691 1.38 Yes Yes
2019SH6 O C H 2019-10-26.41746 1.000E-05 04:57:39.750 1.500E-01 0.500 F -0.139 -0.677 -00° 36' 12.80" 1.000E-01 0.500 F 0.026 -0.308 19.6 R 0.70 -0.23 o 691 1.49 Yes Yes
2019SH6 O C H 2019-10-26.42547 1.000E-05 04:57:40.710 1.500E-01 0.500 F -0.139 0.188 -00° 36' 16.70" 1.000E-01 0.500 F 0.026 0.576 19.7 R 0.70 -0.13 o 691 1.21 Yes Yes
2019SH6 O C H 2019-10-26.43347 1.000E-05 04:57:41.600 1.500E-01 0.500 F -0.139 0.019 -00° 36' 22.30" 1.000E-01 0.500 F 0.026 -0.246 20.1 R 0.70 0.27 o 691 0.50 Yes Yes
2019TL6 O C K 2019-10-27.18073 1.000E-05 00:12:33.000 1.500E-01 0.500 F -0.302 -0.209 -12° 03' 09.20" 1.000E-01 0.500 F 0.248 0.000 20.1 R 0.70 -0.07 o 691 0.44 Yes Yes
2019TL6 O C K 2019-10-27.19184 1.000E-05 00:12:29.080 1.500E-01 0.500 F -0.302 0.178 -12° 04' 32.30" 1.000E-01 0.500 F 0.248 -0.030 18.8 R 0.70 -1.37 o 691 0.38 Yes Yes
2019UJ10 O C K 2019-10-27.21614 1.000E-05 01:01:49.260 1.500E-01 0.500 F -0.264 0.175 -20° 29' 18.40" 1.000E-01 0.500 F -0.067 0.400 21.6 R 0.70 0.40 o 691 0.88 Yes Yes
2019UJ10 O C K 2019-10-27.23217 1.000E-05 01:01:48.150 1.500E-01 0.500 F -0.264 0.151 -20° 29' 19.60" 1.000E-01 0.500 F -0.067 -0.283 21.4 R 0.70 0.20 o 691 0.65 Yes Yes
2019UJ10 O C K 2019-10-27.24819 1.000E-05 01:01:47.020 1.500E-01 0.500 F -0.264 -0.153 -20° 29' 19.70" 1.000E-01 0.500 F -0.067 0.093 21.4 R 0.70 0.20 o 691 0.36 Yes Yes
2019UY9 O C K 2019-10-27.27212 1.000E-05 01:07:48.540 1.500E-01 0.500 F -0.346 -0.070 -11° 24' 00.10" 1.000E-01 0.500 F 0.041 -0.384 21.5 R 0.70 0.49 o 691 0.79 Yes Yes
2019UY9 O C K 2019-10-27.29290 1.000E-05 01:07:45.010 1.500E-01 0.500 F -0.346 0.283 -11° 23' 11.00" 1.000E-01 0.500 F 0.041 -0.336 21.9 R 0.70 0.89 o 691 0.89 Yes Yes
2019UY9 O C K 2019-10-27.31369 1.000E-05 01:07:41.470 1.500E-01 0.500 F -0.346 0.412 -11° 22' 21.20" 1.000E-01 0.500 F 0.041 0.380 o 691 1.14 Yes No
2019UW8 O C K 2019-10-27.32613 1.000E-05 01:34:58.480 1.500E-01 0.500 F -0.228 -1.121 -23° 01' 07.50" 1.000E-01 0.500 F 0.226 0.682 20.1 R 0.70 -0.43 o 691 2.63 Yes Yes
2019UV8 O C K 2019-10-27.33163 1.000E-05 02:08:34.840 1.500E-01 0.500 F -0.280 0.307 +00° 47' 59.80" 1.000E-01 0.500 F 0.321 -0.605 21.9 R 0.70 0.66 o 691 1.38 Yes Yes
2019UE4 O C H 2019-10-27.34024 1.000E-05 02:06:34.000 1.500E-01 0.500 F -0.116 -0.896 +10° 53' 21.20" 1.000E-01 0.500 F 0.281 0.222 o 691 1.87 Yes No
2019UW8 O C K 2019-10-27.34275 1.000E-05 01:35:00.800 1.500E-01 0.500 F -0.228 -0.028 -23° 01' 47.40" 1.000E-01 0.500 F 0.226 0.579 20.2 R 0.70 -0.33 o 691 1.16 Yes Yes
2019UV8 O C K 2019-10-27.34823 1.000E-05 02:08:34.800 1.500E-01 0.500 F -0.280 -0.115 +00° 48' 34.90" 1.000E-01 0.500 F 0.321 0.411 21.8 R 0.70 0.56 o 691 0.87 Yes Yes
2019UE4 O C H 2019-10-27.35684 1.000E-05 02:06:35.900 1.500E-01 0.500 F -0.116 0.646 +10° 53' 22.80" 1.000E-01 0.500 F 0.281 0.612 21.1 R 0.70 0.66 o 691 1.80 Yes Yes
2019UW8 O C K 2019-10-27.35936 1.000E-05 01:35:03.090 1.500E-01 0.500 F -0.228 0.395 -23° 02' 26.60" 1.000E-01 0.500 F 0.226 0.403 o 691 1.13 Yes No
2019UV8 O C K 2019-10-27.36483 1.000E-05 02:08:34.740 1.500E-01 0.500 F -0.280 -0.925 +00° 49' 08.30" 1.000E-01 0.500 F 0.321 -0.281 o 691 1.96 Yes No
2019UE4 O C H 2019-10-27.37344 1.000E-05 02:06:37.650 1.500E-01 0.500 F -0.116 -0.629 +10° 53' 23.20" 1.000E-01 0.500 F 0.281 0.204 20.5 R 0.70 0.05 o 691 1.34 Yes Yes
2019SF2 O C K 2019-10-29.14220 1.000E-05 21:55:38.470 1.500E-01 0.500 F 0.011 -0.117 +10° 59' 15.80" 1.000E-01 0.500 F 0.276 -0.031 19.2 R 0.70 -1.74 o 691 0.24 Yes Yes
2019SF2 O C K 2019-10-29.15213 1.000E-05 21:55:39.080 1.500E-01 0.500 F 0.011 -0.229 +10° 59' 19.60" 1.000E-01 0.500 F 0.276 0.097 19.3 R 0.70 -1.64 o 691 0.50 Yes Yes
2019UD4 O C K 2019-10-29.16182 1.000E-05 22:26:29.940 1.500E-01 0.500 F -0.129 -0.260 +16° 57' 02.30" 1.000E-01 0.500 F 0.304 0.233 20.8 R 0.70 0.07 o 691 0.70 Yes Yes
2019UD4 O C K 2019-10-29.16872 1.000E-05 22:26:32.810 1.500E-01 0.500 F -0.129 0.062 +16° 57' 12.20" 1.000E-01 0.500 F 0.304 -0.519 21.5 R 0.70 0.77 o 691 1.05 Yes Yes
2019UD4 O C K 2019-10-29.17561 1.000E-05 22:26:35.640 1.500E-01 0.500 F -0.129 -0.141 +16° 57' 23.80" 1.000E-01 0.500 F 0.304 0.477 20.9 R 0.70 0.17 o 691 1.00 Yes Yes
2019UV3 O C H 2019-10-29.18342 1.000E-05 23:12:49.840 1.500E-01 0.500 F -0.012 0.055 +29° 36' 05.00" 1.000E-01 0.500 F 0.278 0.213 20.7 R 0.70 -0.04 o 691 0.44 Yes Yes
2019SV8 O C H 2019-10-29.18526 1.000E-05 23:11:01.310 1.500E-01 0.500 F -0.012 0.248 +30° 11' 31.90" 1.000E-01 0.500 F 0.278 0.587 20.5 R 0.70 0.50 o 691 1.29 Yes Yes
2019UV3 O C H 2019-10-29.19049 1.000E-05 23:12:49.730 1.500E-01 0.500 F -0.012 -0.052 +29° 35' 54.90" 1.000E-01 0.500 F 0.278 0.007 20.2 R 0.70 -0.54 o 691 0.11 Yes Yes
2019UV3 O C H 2019-10-29.19758 1.000E-05 23:12:49.610 1.500E-01 0.500 F -0.012 -0.291 +29° 35' 45.20" 1.000E-01 0.500 F 0.278 0.241 20.6 R 0.70 -0.14 o 691 0.76 Yes Yes
2019SV8 O C H 2019-10-29.19942 1.000E-05 23:10:56.230 1.500E-01 0.500 F -0.012 -0.183 +30° 11' 31.00" 1.000E-01 0.500 F 0.278 -0.326 o 691 0.76 Yes No
2019UE8 O C K 2019-10-29.26108 1.000E-05 01:09:58.060 1.500E-01 0.500 F -0.186 -0.229 +10° 43' 04.20" 1.000E-01 0.500 F 0.375 0.199 20.7 R 0.70 0.29 o 691 0.62 Yes Yes
2019UE8 O C K 2019-10-29.26967 1.000E-05 01:09:58.910 1.500E-01 0.500 F -0.186 -0.576 +10° 43' 20.00" 1.000E-01 0.500 F 0.375 0.125 21.0 R 0.70 0.59 o 691 1.21 Yes Yes
2019UE8 O C K 2019-10-29.27823 1.000E-05 01:09:59.860 1.500E-01 0.500 F -0.186 0.554 +10° 43' 35.60" 1.000E-01 0.500 F 0.375 -0.052 20.3 R 0.70 -0.11 o 691 1.14 Yes Yes
2019UW8 O C K 2019-10-29.28702 1.000E-05 01:39:17.340 1.500E-01 0.500 F -0.194 0.189 -23° 56' 20.10" 1.000E-01 0.500 F 0.514 -0.043 21.4 R 0.70 0.05 o 691 0.39 Yes Yes
2019UW8 O C K 2019-10-29.29905 1.000E-05 01:39:18.050 1.500E-01 0.500 F -0.194 0.433 -23° 56' 32.30" 1.000E-01 0.500 F 0.514 0.839 21.5 R 0.70 0.14 o 691 1.90 Yes Yes
2019UW8 O C K 2019-10-29.31109 1.000E-05 01:39:18.750 1.500E-01 0.500 F -0.194 0.496 -23° 56' 46.20" 1.000E-01 0.500 F 0.514 -0.210 21.9 R 0.70 0.54 o 691 1.08 Yes Yes
Betulia O C 2019-10-29.35167 1.000E-05 03:07:51.650 1.500E-01 0.500 F -0.240 -0.272 -28° 43' 15.80" 1.000E-01 0.500 F 0.393 0.058 19.7 V 0.70 0.13 o 691 0.55 Yes Yes
Betulia O C 2019-10-29.35980 1.000E-05 03:07:50.900 1.500E-01 0.500 F -0.240 -0.153 -28° 43' 15.10" 1.000E-01 0.500 F 0.393 0.069 19.6 V 0.70 0.03 o 691 0.34 Yes Yes
Betulia O C 2019-10-29.36792 1.000E-05 03:07:50.130 1.500E-01 0.500 F -0.240 -0.312 -28° 43' 14.50" 1.000E-01 0.500 F 0.393 -0.024 19.7 V 0.70 0.13 o 691 0.62 Yes Yes
1998XB O C 2019-10-29.51493 1.000E-05 11:52:13.010 1.500E-01 0.500 F 0.176 -0.319 +09° 39' 38.30" 1.000E-01 0.500 F 0.172 0.020 19.1 V 0.70 0.15 o 691 0.64 Yes Yes
Bede O C 2019-10-29.51717 1.000E-05 11:34:06.580 1.500E-01 0.500 F 0.102 -0.066 +10° 20' 59.20" 1.000E-01 0.500 F 0.218 0.049 18.6 V 0.70 0.04 o 691 0.16 Yes Yes
1998XB O C 2019-10-29.51942 1.000E-05 11:52:13.990 1.500E-01 0.500 F 0.176 -0.164 +09° 39' 33.20" 1.000E-01 0.500 F 0.172 0.198 19.1 V 0.70 0.15 o 691 0.51 Yes Yes
Bede O C 2019-10-29.52166 1.000E-05 11:34:07.220 1.500E-01 0.500 F 0.102 -0.117 +10° 20' 53.10" 1.000E-01 0.500 F 0.218 -0.101 18.5 V 0.70 -0.06 o 691 0.31 Yes Yes
1998XB O C 2019-10-29.52391 1.000E-05 11:52:14.940 1.500E-01 0.500 F 0.176 -0.450 +09° 39' 28.00" 1.000E-01 0.500 F 0.172 0.277 19.1 V 0.70 0.15 o 691 1.06 Yes Yes
Bede O C 2019-10-29.52615 1.000E-05 11:34:07.860 1.500E-01 0.500 F 0.102 -0.167 +10° 20' 47.30" 1.000E-01 0.500 F 0.218 0.049 18.6 V 0.70 0.04 o 691 0.35 Yes Yes
2019NC1 O C K 2019-10-30.08671 1.000E-05 18:12:58.210 1.500E-01 0.500 F -0.140 0.417 +13° 29' 48.50" 1.000E-01 0.500 F 0.205 -0.411 o 691 1.19 Yes No
2019NC1 O C K 2019-10-30.09862 1.000E-05 18:12:58.000 1.500E-01 0.500 F -0.140 0.228 +13° 30' 02.70" 1.000E-01 0.500 F 0.205 1.751 o 691 3.52 No No
2019UK6 O C K 2019-10-30.12406 1.000E-05 21:37:40.520 1.500E-01 0.500 F -0.002 0.024 +20° 49' 24.30" 1.000E-01 0.500 F 0.288 0.197 o 691 0.40 Yes No
2019UK6 O C K 2019-10-30.13176 1.000E-05 21:37:41.520 1.500E-01 0.500 F -0.002 0.122 +20° 49' 38.80" 1.000E-01 0.500 F 0.288 0.130 20.1 R 0.70 -0.30 o 691 0.36 Yes Yes
2019UK6 O C K 2019-10-30.13948 1.000E-05 21:37:42.500 1.500E-01 0.500 F -0.002 -0.138 +20° 49' 53.00" 1.000E-01 0.500 F 0.288 -0.222 20.5 R 0.70 0.10 o 691 0.53 Yes Yes
2019UQ12 O C K 2019-10-30.14792 1.000E-05 22:57:43.160 1.500E-01 0.500 F -0.321 0.445 -20° 02' 30.90" 1.000E-01 0.500 F 0.185 -0.797 o 691 1.86 Yes No
2019UD O C K 2019-10-30.15264 1.000E-05 22:50:44.370 1.500E-01 0.500 F -0.069 -0.018 +01° 27' 38.70" 1.000E-01 0.500 F 0.266 -0.028 20.7 R 0.70 0.29 o 691 0.07 Yes Yes
2019UQ12 O C K 2019-10-30.15948 1.000E-05 22:57:44.950 1.500E-01 0.500 F -0.321 0.349 -20° 03' 09.40" 1.000E-01 0.500 F 0.185 0.156 o 691 0.77 Yes No
2019UD O C K 2019-10-30.16416 1.000E-05 22:50:32.700 1.500E-01 0.500 F -0.069 -0.323 +01° 27' 13.10" 1.000E-01 0.500 F 0.266 -0.285 20.2 R 0.70 -0.21 o 691 0.91 Yes Yes
2019UD O C K 2019-10-30.17563 1.000E-05 22:50:21.160 1.500E-01 0.500 F -0.069 0.344 +01° 26' 48.50" 1.000E-01 0.500 F 0.266 0.373 20.2 R 0.70 -0.21 o 691 1.07 Yes Yes
2019UL12 O C K 2019-10-30.20321 1.000E-05 00:33:20.110 1.500E-01 0.500 F -0.279 -0.366 -03° 33' 43.40" 1.000E-01 0.500 F 0.278 0.099 19.0 R 0.70 -0.75 o 691 0.78 Yes Yes
2014FL33 O C H 2019-10-30.20827 1.000E-05 01:47:11.550 1.500E-01 0.500 F -0.307 0.200 -31° 45' 18.10" 1.000E-01 0.500 F 0.210 -0.449 20.5 R 0.70 0.47 o 691 1.04 Yes Yes
2014FL33 O C H 2019-10-30.21512 1.000E-05 01:47:11.110 1.500E-01 0.500 F -0.307 0.361 -31° 45' 00.80" 1.000E-01 0.500 F 0.210 0.059 20.1 R 0.70 0.07 o 691 0.83 Yes Yes
2019UL12 O C K 2019-10-30.21688 1.000E-05 00:33:38.800 1.500E-01 0.500 F -0.277 0.307 -03° 30' 19.40" 1.000E-01 0.500 F 0.246 0.461 19.8 R 0.70 0.05 o 691 1.16 Yes Yes
2014FL33 O C H 2019-10-30.22191 1.000E-05 01:47:10.640 1.500E-01 0.500 F -0.307 0.098 -31° 44' 44.30" 1.000E-01 0.500 F 0.210 -0.098 20.0 R 0.70 -0.03 o 691 0.29 Yes Yes
2019UY1 O C H 2019-10-30.22598 1.000E-05 01:32:23.390 1.500E-01 0.500 F -0.387 0.017 -07° 36' 38.90" 1.000E-01 0.500 F 0.238 0.094 o 691 0.20 Yes No
2019UY1 O C H 2019-10-30.23155 1.000E-05 01:32:21.080 1.500E-01 0.500 F -0.387 0.589 -07° 36' 19.40" 1.000E-01 0.500 F 0.238 -0.957 o 691 2.34 Yes No
2019UY1 O C H 2019-10-30.23713 1.000E-05 01:32:18.870 1.500E-01 0.500 F -0.387 2.718 -07° 35' 58.20" 1.000E-01 0.500 F 0.238 -0.351 o 691 5.29 No No
2019UL8 O C H 2019-10-30.31627 1.000E-05 02:45:08.720 1.500E-01 0.500 F -0.272 0.493 +15° 55' 22.20" 1.000E-01 0.500 F 0.341 0.065 19.2 R 0.70 -0.01 o 691 1.02 Yes Yes
2019TV2 O C H 2019-10-30.31805 1.000E-05 02:54:58.380 1.500E-01 0.500 F -0.349 0.138 +12° 08' 36.50" 1.000E-01 0.500 F 0.401 0.190 o 691 0.52 Yes No
2019UL8 O C H 2019-10-30.32231 1.000E-05 02:45:11.980 1.500E-01 0.500 F -0.272 -0.043 +15° 55' 29.90" 1.000E-01 0.500 F 0.341 0.054 19.4 R 0.70 0.20 o 691 0.14 Yes Yes
2019TV2 O C H 2019-10-30.32409 1.000E-05 02:54:57.850 1.500E-01 0.500 F -0.349 -0.177 +12° 08' 48.30" 1.000E-01 0.500 F 0.401 -0.203 o 691 0.60 Yes No
2019UL8 O C H 2019-10-30.32835 1.000E-05 02:45:15.290 1.500E-01 0.500 F -0.272 0.012 +15° 55' 37.50" 1.000E-01 0.500 F 0.341 0.013 19.1 R 0.70 -0.10 o 691 0.04 Yes Yes
2019TV2 O C H 2019-10-30.33013 1.000E-05 02:54:57.380 1.500E-01 0.500 F -0.349 0.385 +12° 09' 00.20" 1.000E-01 0.500 F 0.401 -0.480 o 691 1.36 Yes No
2019QT8 O C H 2019-10-30.34013 1.000E-05 04:13:45.390 1.500E-01 0.500 F -0.259 0.103 -20° 32' 14.40" 1.000E-01 0.500 F 0.167 0.325 19.1 R 0.70 0.39 o 691 0.69 Yes Yes
2019QT8 O C H 2019-10-30.34887 1.000E-05 04:13:45.010 1.500E-01 0.500 F -0.259 0.090 -20° 31' 52.40" 1.000E-01 0.500 F 0.167 0.636 19.2 R 0.70 0.49 o 691 1.29 Yes Yes
2019QT8 O C H 2019-10-30.35762 1.000E-05 04:13:44.620 1.500E-01 0.500 F -0.259 -0.041 -20° 31' 31.50" 1.000E-01 0.500 F 0.167 -0.204 19.2 R 0.70 0.49 o 691 0.42 Yes Yes
2015XU168 O C 2019-10-30.40050 1.000E-05 05:25:16.090 1.500E-01 0.500 F -0.181 0.662 -09° 10' 56.50" 1.000E-01 0.500 F 0.109 0.041 20.7 V 0.70 0.09 o 691 1.60 Yes Yes
2019QV5 O C H 2019-10-30.40283 1.000E-05 05:27:47.830 1.500E-01 0.500 F 0.065 -0.123 +07° 31' 00.10" 1.000E-01 0.500 F 0.159 -0.305 19.3 R 0.70 -0.07 o 691 0.66 Yes Yes
2015XU168 O C 2019-10-30.40833 1.000E-05 05:25:14.400 1.500E-01 0.500 F -0.181 -0.448 -09° 10' 56.40" 1.000E-01 0.500 F 0.109 -0.171 20.7 V 0.70 0.09 o 691 1.13 Yes Yes
2019QV5 O C H 2019-10-30.41061 1.000E-05 05:27:48.750 1.500E-01 0.500 F 0.065 -0.196 +07° 31' 05.80" 1.000E-01 0.500 F 0.159 -0.105 19.4 R 0.70 0.04 o 691 0.45 Yes Yes
2015XU168 O C 2019-10-30.41611 1.000E-05 05:25:12.830 1.500E-01 0.500 F -0.181 0.071 -09° 10' 56.20" 1.000E-01 0.500 F 0.109 -0.290 20.2 V 0.70 -0.41 o 691 0.63 Yes Yes
2019QV5 O C H 2019-10-30.41839 1.000E-05 05:27:49.660 1.500E-01 0.500 F 0.065 -0.408 +07° 31' 11.10" 1.000E-01 0.500 F 0.159 -0.299 19.1 R 0.70 -0.26 o 691 1.02 Yes Yes
2019UL13 O C K 2019-10-30.42012 1.000E-05 05:56:55.450 1.500E-01 0.500 F -0.067 0.047 +06° 48' 03.50" 1.000E-01 0.500 F 0.132 0.217 21.1 R 0.70 0.49 o 691 0.45 Yes Yes
2019UL13 O C K 2019-10-30.42759 1.000E-05 05:56:54.740 1.500E-01 0.500 F -0.067 -0.080 +06° 48' 21.40" 1.000E-01 0.500 F 0.132 0.654 20.5 R 0.70 -0.11 o 691 1.33 Yes Yes
2019UL13 O C K 2019-10-30.43507 1.000E-05 05:56:54.060 1.500E-01 0.500 F -0.067 0.268 +06° 48' 38.40" 1.000E-01 0.500 F 0.132 0.169 21.4 R 0.70 0.79 o 691 0.64 Yes Yes
2019SU8 O C K 2019-10-31.08188 1.000E-05 20:52:07.960 1.500E-01 0.500 F -0.018 0.296 +15° 40' 07.80" 1.000E-01 0.500 F 0.319 -0.036 21.1 R 0.70 0.06 o 691 0.78 Yes Yes
2019SU8 O C K 2019-10-31.09058 1.000E-05 20:52:05.100 1.500E-01 0.500 F -0.018 -0.425 +15° 39' 57.30" 1.000E-01 0.500 F 0.319 0.164 21.1 R 0.70 0.06 o 691 1.15 Yes Yes
2019UK6 O C K 2019-10-31.09967 1.000E-05 21:40:28.460 1.500E-01 0.500 F 0.059 -0.179 +21° 21' 42.90" 1.000E-01 0.500 F 0.300 -0.202 o 691 0.55 Yes No
2019UK6 O C K 2019-10-31.10448 1.000E-05 21:40:29.180 1.500E-01 0.500 F 0.059 0.029 +21° 21' 53.00" 1.000E-01 0.500 F 0.300 -0.048 o 691 0.11 Yes No
2019UK6 O C K 2019-10-31.10929 1.000E-05 21:40:29.890 1.500E-01 0.500 F 0.059 0.091 +21° 22' 03.30" 1.000E-01 0.500 F 0.300 0.329 o 691 0.69 Yes No
2019UN2 O C K 2019-10-31.15969 1.000E-05 23:07:53.870 1.500E-01 0.500 F -0.210 0.488 +16° 13' 30.90" 1.000E-01 0.500 F 0.418 0.093 20.1 R 0.70 -0.49 o 691 1.06 Yes Yes
2019UN2 O C K 2019-10-31.16450 1.000E-05 23:07:50.950 1.500E-01 0.500 F -0.210 0.274 +16° 13' 54.60" 1.000E-01 0.500 F 0.418 0.500 20.8 R 0.70 0.21 o 691 1.22 Yes Yes
2019UN2 O C K 2019-10-31.16930 1.000E-05 23:07:48.030 1.500E-01 0.500 F -0.210 -0.017 +16° 14' 17.40" 1.000E-01 0.500 F 0.418 0.083 20.9 R 0.70 0.31 o 691 0.18 Yes Yes
2015GR13 O C K 2019-10-31.19877 1.000E-05 00:34:51.510 1.500E-01 0.500 F -0.477 -0.311 -16° 11' 08.90" 1.000E-01 0.500 F 0.300 0.069 o 691 0.68 Yes No
2015GR13 O C K 2019-10-31.20932 1.000E-05 00:34:50.460 1.500E-01 0.500 F -0.477 0.453 -16° 11' 01.50" 1.000E-01 0.500 F 0.300 -0.481 o 691 1.38 Yes No
2015GR13 O C K 2019-10-31.21988 1.000E-05 00:34:49.340 1.500E-01 0.500 F -0.477 0.224 -16° 10' 53.50" 1.000E-01 0.500 F 0.300 -0.454 o 691 1.04 Yes No
2019UQ4 O C K 2019-10-31.31251 1.000E-05 02:36:21.760 1.500E-01 0.500 F -0.173 -1.274 +13° 05' 37.30" 1.000E-01 0.500 F 0.274 1.443 o 691 3.62 No No
2019UQ4 O C K 2019-10-31.32181 1.000E-05 02:36:22.530 1.500E-01 0.500 F -0.173 -0.391 +13° 04' 53.00" 1.000E-01 0.500 F 0.274 0.284 o 691 1.03 Yes No
2019UQ4 O C K 2019-10-31.33111 1.000E-05 02:36:23.310 1.500E-01 0.500 F -0.173 0.606 +13° 04' 08.30" 1.000E-01 0.500 F 0.274 -1.178 o 691 2.84 Yes No
2019UH6 O C K 2019-10-31.39070 1.000E-05 03:32:15.860 1.500E-01 0.500 F -0.261 -0.089 +01° 06' 20.50" 1.000E-01 0.500 F 0.236 -0.222 22.2 R 0.70 0.61 o 691 0.57 Yes Yes
2019UH6 O C K 2019-10-31.40160 1.000E-05 03:32:14.980 1.500E-01 0.500 F -0.261 0.510 +01° 06' 37.80" 1.000E-01 0.500 F 0.236 0.310 21.7 R 0.70 0.11 o 691 1.43 Yes Yes
2019UH6 O C K 2019-10-31.41251 1.000E-05 03:32:14.010 1.500E-01 0.500 F -0.261 -0.318 +01° 06' 54.20" 1.000E-01 0.500 F 0.236 -0.060 22.5 R 0.70 0.91 o 691 0.78 Yes Yes
2019UX7 O C K 2019-10-31.45701 1.000E-05 03:45:34.280 1.500E-01 0.500 F -0.127 -0.173 +20° 01' 23.00" 1.000E-01 0.500 F 0.246 -0.229 o 691 0.58 Yes No
2019UX7 O C K 2019-10-31.46114 1.000E-05 03:45:34.680 1.500E-01 0.500 F -0.127 0.070 +20° 01' 39.00" 1.000E-01 0.500 F 0.246 -0.301 o 691 0.63 Yes No
2019UX7 O C K 2019-10-31.46528 1.000E-05 03:45:35.060 1.500E-01 0.500 F -0.127 -0.011 +20° 01' 55.50" 1.000E-01 0.500 F 0.246 0.097 o 691 0.20 Yes No
2019UL2 O C K 2019-10-31.50103 1.000E-05 05:31:19.710 1.500E-01 0.500 F -0.148 0.339 -08° 58' 13.30" 1.000E-01 0.500 F 0.116 -0.687 o 691 1.68 Yes No
2019UL2 O C K 2019-10-31.50309 1.000E-05 05:31:21.260 1.500E-01 0.500 F -0.148 0.460 -08° 58' 28.80" 1.000E-01 0.500 F 0.116 -0.010 o 691 1.01 Yes No
2019UL2 O C K 2019-10-31.50515 1.000E-05 05:31:22.760 1.500E-01 0.500 F -0.148 -0.173 -08° 58' 44.30" 1.000E-01 0.500 F 0.116 0.666 o 691 1.51 Yes No
2019UN4 O C K 2019-10-31.51875 1.000E-05 03:40:31.990 1.500E-01 0.500 F -0.222 -0.090 +17° 34' 25.50" 1.000E-01 0.500 F 0.259 -0.219 o 691 0.48 Yes No
2019UN4 O C K 2019-10-31.52356 1.000E-05 03:40:31.290 1.500E-01 0.500 F -0.222 -0.180 +17° 34' 00.20" 1.000E-01 0.500 F 0.259 -0.177 o 691 0.51 Yes No
2019TA2 O C K 2019-11-01.07509 1.000E-05 21:17:43.250 1.500E-01 0.500 F 0.028 0.132 +03° 20' 06.40" 1.000E-01 0.500 F 0.278 -0.328 21.1 R 0.70 0.06 o 691 0.77 Yes Yes
2019TA2 O C K 2019-11-01.08397 1.000E-05 21:17:36.800 1.500E-01 0.500 F 0.028 -0.271 +03° 20' 48.40" 1.000E-01 0.500 F 0.278 -0.036 21.1 R 0.70 0.06 o 691 0.61 Yes Yes
2019TO O C K 2019-11-01.09350 1.000E-05 22:23:37.380 1.500E-01 0.500 F -0.149 1.175 -28° 12' 12.40" 1.000E-01 0.500 F 0.481 -0.263 o 691 2.48 Yes No
2019TO O C K 2019-11-01.09940 1.000E-05 22:23:38.480 1.500E-01 0.500 F -0.149 0.492 -28° 12' 31.70" 1.000E-01 0.500 F 0.481 0.074 o 691 1.01 Yes No
2019OP2 O C 2019-11-01.11739 1.000E-05 21:28:49.890 1.500E-01 0.500 F 0.022 -0.272 +22° 28' 57.20" 1.000E-01 0.500 F 0.302 -0.221 19.8 V 0.70 -0.06 o 691 0.71 Yes Yes
2019OP2 O C 2019-11-01.12830 1.000E-05 21:28:52.230 1.500E-01 0.500 F 0.022 -0.591 +22° 29' 02.90" 1.000E-01 0.500 F 0.302 -0.322 19.8 V 0.70 -0.06 o 691 1.37 Yes Yes
2019OP2 O C 2019-11-01.13556 1.000E-05 21:28:53.860 1.500E-01 0.500 F 0.022 0.180 +22° 29' 07.10" 1.000E-01 0.500 F 0.302 0.050 19.9 V 0.70 0.04 o 691 0.38 Yes Yes
2019UK6 O C K 2019-11-01.14632 1.000E-05 21:43:48.440 1.500E-01 0.500 F 0.099 0.219 +21° 59' 12.70" 1.000E-01 0.500 F 0.254 -0.342 o 691 0.82 Yes No
2019UK6 O C K 2019-11-01.15045 1.000E-05 21:43:49.140 1.500E-01 0.500 F 0.099 0.211 +21° 59' 21.90" 1.000E-01 0.500 F 0.254 -0.188 o 691 0.57 Yes No
2019UK12 O C K 2019-11-01.18765 1.000E-05 23:26:04.440 1.500E-01 0.500 F -0.312 0.045 -03° 46' 34.80" 1.000E-01 0.500 F 0.207 0.114 o 691 0.26 Yes No
2019UK12 O C K 2019-11-01.19246 1.000E-05 23:26:02.910 1.500E-01 0.500 F -0.312 0.039 -03° 46' 16.30" 1.000E-01 0.500 F 0.207 -0.220 o 691 0.48 Yes No
2019UK12 O C K 2019-11-01.19727 1.000E-05 23:26:01.390 1.500E-01 0.500 F -0.312 0.162 -03° 45' 57.50" 1.000E-01 0.500 F 0.207 -0.257 o 691 0.66 Yes No

[1-200] [201-400] [401-600] [601-800] [801-1000] [1001-1200] [1201-1400] [1401-1600] [1601-1800] [1801-2000] [2001-2200] [2201-2400] [2401-2600] [2601-2800] [2801-3000] [3001-3200] [3201-3400] [3401-3600] [3601-3800] [3801-4000] [4001-4200] [4201-4400] [4401-4600] [4601-4800] [4801-5000] [5001-5200] [5201-5400] [5401-5600] [5601-5800] [5801-6000] [6001-6200] [6201-6400] [6401-6600] [6601-6800] [6801-7000] [7001-7200] [7201-7400] [7401-7600] [7601-7800] [7801-8000] [8001-8200] [8201-8400] [8401-8600] [8601-8800] [8801-9000] [9001-9200] [9201-9400] [9401-9600] [9601-9800] [9801-10000] [10001-10200] [10201-10400] [10401-10600] [10601-10800] [10801-11000] [11001-11200] [11201-11400] [11401-11600] [11601-11800] [11801-12000] [12001-12200] [12201-12400] [12401-12600] [12601-12800] [12801-13000] [13001-13200] [13201-13400] [13401-13600] [13601-13800] [13801-14000] [14001-14200] [14201-14400] [14401-14600] [14601-14800] [14801-15000] [15001-15200] [15201-15400] [15401-15600] [15601-15800] [15801-16000] [16001-16200] [16201-16400] [16401-16600] [16601-16800] [16801-17000] [17001-17200] [17201-17400] [17401-17600] [17601-17800] [17801-18000] [18001-18200] [18201-18400] [18401-18600] [18601-18800] [18801-19000] [19001-19200] [19201-19400] [19401-19600] [19601-19800] [19801-20000] [20001-20200] [20201-20400] [20401-20600] [20601-20800] [20801-21000] [21001-21200] [21201-21400] [21401-21600] [21601-21800] [21801-22000] [22001-22200] [22201-22400] [22401-22600] [22601-22800] [22801-23000] [23001-23200] [23201-23400] [23401-23600] [23601-23800] [23801-24000] [24001-24200] [24201-24400] [24401-24600] [24601-24800] [24801-25000] [25001-25200] [25201-25400] [25401-25600] [25601-25800] [25801-26000] [26001-26200] [26201-26400] [26401-26600] [26601-26800] [26801-27000] [27001-27200] [27201-27400] [27401-27600] [27601-27800] [27801-28000] [28001-28200] [28201-28400] [28401-28600] [28601-28800] [28801-29000] [29001-29200] [29201-29400] [29401-29600] [29601-29800] [29801-30000] [30001-30200] [30201-30400] [30401-30600] [30601-30800] [30801-31000] [31001-31200] [31201-31400] [31401-31600] [31601-31800] [31801-32000] [32001-32200] [32201-32400] [32401-32600] [32601-32800] [32801-33000] [33001-33200] [33201-33400] [33401-33600] [33601-33800] [33801-34000] [34001-34200] [34201-34400] [34401-34600] [34601-34800] [34801-35000] [35001-35200] [35201-35400] [35401-35600] [35601-35800] [35801-36000] [36001-36200] [36201-36400] [36401-36600] [36601-36800] [36801-37000] [37001-37200] [37201-37400] [37401-37600] [37601-37800] [37801-38000] [38001-38200] [38201-38400] [38401-38600] [38601-38800] [38801-39000] [39001-39200] [39201-39400] [39401-39600] [39601-39800] [39801-40000] [40001-40200] [40201-40400] [40401-40600] [40601-40800] [40801-41000] [41001-41200] [41201-41400] [41401-41600] [41601-41800] [41801-42000] [42001-42200] [42201-42400] [42401-42600] [42601-42800] [42801-43000] [43001-43200] [43201-43400] [43401-43600] [43601-43800] [43801-44000] [44001-44200] [44201-44400] [44401-44600] [44601-44800] [44801-45000] [45001-45200] [45201-45400] [45401-45600] [45601-45800] [45801-46000] [46001-46200] [46201-46400] [46401-46600] [46601-46800] [46801-47000] [47001-47200] [47201-47400] [47401-47600] [47601-47800] [47801-48000] [48001-48200] [48201-48400] [48401-48600] [48601-48800] [48801-49000] [49001-49200] [49201-49400] [49401-49600] [49601-49800] [49801-50000] [50001-50200] [50201-50388]